Citadel — PBOK — position and weather

sailwx.info

Track history (hours):
 
Tides and Currents Weather Stations Pressure Air Temp Water Temp Dewpoint Dewpoint Depression Visibility Wind Speed Wind Dir Waves Ship Positions

Citadel

Last reported at 2017-Jun-24 09:35 UTC. Time now 2017-Jun-24 10:21 UTC.
Position N 40°16' E 005°58'.

Length 111 m; draft 6.4 m.

Type: Cargo ship. MMSI: 245977000.

Date/timePositionNaut miles runAvg speedWind from/ knotsBaromVisibWave heightAir tempDewpointWater temp
2017-Jun-24 09:35N 40°16' E 005°58'110.5
2017-Jun-24 09:30N 40°15' E 005°57'510.5
2017-Jun-24 09:00N 40°13' E 005°51'1110.7
2017-Jun-24 07:58N 40°08' E 005°38'2010.6
2017-Jun-24 06:02N 39°58' E 005°15'110.9
2017-Jun-24 05:58N 39°58' E 005°14'510.9
2017-Jun-24 05:29N 39°56' E 005°08'510.8
2017-Jun-24 05:00N 39°53' E 005°02'711.0
2017-Jun-24 04:21N 39°50' E 004°53'411.1
2017-Jun-24 04:00N 39°48' E 004°49'611.2
2017-Jun-24 03:30N 39°45' E 004°43'611.2
2017-Jun-24 03:00N 39°43' E 004°36'511.1
2017-Jun-24 02:30N 39°40' E 004°30'611.1
2017-Jun-24 01:58N 39°38' E 004°23'510.9
2017-Jun-24 01:30N 39°35' E 004°17'510.9
2017-Jun-24 01:00N 39°33' E 004°10'811.0
2017-Jun-24 00:16N 39°29' E 004°01'311.1
2017-Jun-23 23:59N 39°27' E 003°58'511.2
2017-Jun-23 23:30N 39°25' E 003°52'611.2
2017-Jun-23 22:59N 39°22' E 003°45'511.2
2017-Jun-23 22:30N 39°20' E 003°39'611.2
2017-Jun-23 22:00N 39°17' E 003°32'611.3
2017-Jun-23 21:30N 39°15' E 003°26'611.6
2017-Jun-23 21:00N 39°12' E 003°19'611.5
2017-Jun-23 20:30N 39°09' E 003°12'611.4
2017-Jun-23 20:00N 39°07' E 003°06'611.3
2017-Jun-23 19:30N 39°04' E 002°59'611.2
2017-Jun-23 19:00N 39°02' E 002°53'611.2
2017-Jun-23 18:30N 38°59' E 002°47'611.1
2017-Jun-23 18:00N 38°57' E 002°40'611.2
2017-Jun-23 17:30N 38°54' E 002°34'611.0
2017-Jun-23 17:00N 38°51' E 002°28'611.2
2017-Jun-23 16:30N 38°49' E 002°21'611.2
2017-Jun-23 16:00N 38°46' E 002°15'611.5
2017-Jun-23 15:30N 38°44' E 002°09'611.7
2017-Jun-23 15:00N 38°41' E 002°02'1211.8
2017-Jun-23 14:00N 38°36' E 001°48'611.5
2017-Jun-23 13:30N 38°33' E 001°42'611.4
2017-Jun-23 13:00N 38°30' E 001°35'611.2
2017-Jun-23 12:30N 38°27' E 001°29'611.3
2017-Jun-23 11:58N 38°24' E 001°23'611.3
2017-Jun-23 11:25N 38°21' E 001°16'511.3
2017-Jun-23 10:59N 38°18' E 001°11'611.4
2017-Jun-23 10:30N 38°15' E 001°05'1311.3
2017-Jun-23 09:20N 38°07' E 000°51'411.3
2017-Jun-23 09:00N 38°05' E 000°48'611.2
2017-Jun-23 08:29N 38°02' E 000°42'511.1
2017-Jun-23 08:00N 37°59' E 000°36'611.0
2017-Jun-23 07:28N 37°55' E 000°30'511.1
2017-Jun-23 07:00N 37°52' E 000°24'611.1
2017-Jun-23 06:30N 37°49' E 000°19'511.3
2017-Jun-23 06:00N 37°46' E 000°13'611.3
2017-Jun-23 05:30N 37°43' E 000°07'511.0
2017-Jun-23 05:00N 37°39' E 000°01'610.9
2017-Jun-23 04:30N 37°36' W 000°04'511.0
2017-Jun-23 04:00N 37°33' W 000°10'511.1
2017-Jun-23 03:30N 37°30' W 000°15'611.1
2017-Jun-23 03:00N 37°27' W 000°21'611.1
2017-Jun-23 02:30N 37°23' W 000°27'611.1
2017-Jun-23 02:00N 37°20' W 000°33'611.0
2017-Jun-23 01:30N 37°17' W 000°39'510.8
2017-Jun-23 01:00N 37°14' W 000°44'510.8
2017-Jun-23 00:30N 37°11' W 000°50'611.0
2017-Jun-23 00:00N 37°07' W 000°55'611.1
2017-Jun-22 23:27N 37°04' W 001°01'510.5
2017-Jun-22 23:00N 37°01' W 001°06'5510.5
2017-Jun-22 17:45N 36°28' W 002°01'310.7
2017-Jun-22 17:28N 36°26' W 002°04'14511.3
2017-Jun-22 04:38N 35°57' W 004°60'111.7
2017-Jun-22 04:30N 35°57' W 005°02'611.8
2017-Jun-22 04:00N 35°56' W 005°09'611.7
2017-Jun-22 03:30N 35°55' W 005°16'3 5.6
2017-Jun-22 03:00N 35°54' W 005°19'0 0.0
2017-Jun-22 02:30N 35°54' W 005°19'0 0.0
2017-Jun-22 01:59N 35°54' W 005°19'0 0.0
2017-Jun-22 01:29N 35°54' W 005°19'0 0.0
2017-Jun-22 00:59N 35°54' W 005°19'0 0.0
2017-Jun-22 00:29N 35°54' W 005°19'0 0.1
2017-Jun-22 00:00N 35°54' W 005°19'1 2.6
2017-Jun-21 23:31N 35°55' W 005°19'4 8.0
2017-Jun-21 23:01N 35°56' W 005°23'811.8
2017-Jun-21 22:22N 35°56' W 005°33'410.9
2017-Jun-21 22:01N 35°55' W 005°37'10 9.4
2017-Jun-21 20:56N 35°55' W 005°50'410.1
2017-Jun-21 20:31N 35°55' W 005°55'8711.5
2017-Jun-21 12:57N 36°14' W 007°40'811.6
2017-Jun-21 12:18N 36°16' W 007°49'2111.6
2017-Jun-21 10:28N 36°21' W 008°14'1511.7
2017-Jun-21 09:09N 36°26' W 008°33'211.7
2017-Jun-21 08:57N 36°26' W 008°36'10910.2
2017-Jun-20 22:13N 37°57' W 009°52'211.8
2017-Jun-20 22:01N 37°59' W 009°52'611.9
2017-Jun-20 21:30N 38°05' W 009°54'611.7
2017-Jun-20 21:00N 38°11' W 009°56'611.6
2017-Jun-20 20:31N 38°16' W 009°57'611.5
2017-Jun-20 20:00N 38°22' W 009°59'611.7
2017-Jun-20 19:31N 38°27' W 010°01'611.6
2017-Jun-20 19:01N 38°33' W 010°02'611.5
2017-Jun-20 18:31N 38°39' W 010°04'611.5
2017-Jun-20 18:00N 38°44' W 010°05'611.2
2017-Jun-20 17:30N 38°50' W 010°05'611.6
2017-Jun-20 17:01N 38°56' W 010°05'611.4
2017-Jun-20 16:30N 39°02' W 010°05'611.7
2017-Jun-20 16:00N 39°07' W 010°05'611.4
2017-Jun-20 15:30N 39°13' W 010°05'611.6
2017-Jun-20 15:00N 39°19' W 010°05'611.3
2017-Jun-20 14:30N 39°25' W 010°05'3411.3
2017-Jun-20 11:30N 39°58' W 010°05'611.3
2017-Jun-20 11:00N 40°04' W 010°05'511.1
2017-Jun-20 10:30N 40°09' W 010°05'510.8
2017-Jun-20 10:00N 40°15' W 010°05'4211.1
2017-Jun-20 06:14N 40°57' W 010°05'50610.8
2017-Jun-18 07:21N 48°49' W 005°49'410.5
2017-Jun-18 07:00N 48°52' W 005°47'510.7
2017-Jun-18 06:30N 48°55' W 005°40'510.9
2017-Jun-18 06:00N 48°57' W 005°32'611.2
2017-Jun-18 05:28N 49°00' W 005°24'511.3
2017-Jun-18 05:00N 49°03' W 005°18'611.7
2017-Jun-18 04:30N 49°06' W 005°10'611.6
2017-Jun-18 04:00N 49°09' W 005°02'611.6
2017-Jun-18 03:30N 49°12' W 004°55'611.6
2017-Jun-18 03:00N 49°15' W 004°47'611.4
2017-Jun-18 02:30N 49°18' W 004°39'611.2
2017-Jun-18 02:00N 49°20' W 004°32'511.0
2017-Jun-18 01:30N 49°23' W 004°25'510.7
2017-Jun-18 01:00N 49°26' W 004°17'1410.4
2017-Jun-17 23:40N 49°33' W 003°59'210.3
2017-Jun-17 23:30N 49°34' W 003°57'1210.2
2017-Jun-17 22:20N 49°40' W 003°41'1210.7
2017-Jun-17 21:13N 49°46' W 003°25'911.5
2017-Jun-17 20:28N 49°50' W 003°13'812.0
2017-Jun-17 19:48N 49°54' W 003°02'412.4
2017-Jun-17 19:30N 49°56' W 002°58'612.5
2017-Jun-17 19:00N 49°58' W 002°49'612.7
2017-Jun-17 18:30N 50°00' W 002°39'612.7
2017-Jun-17 18:01N 50°02' W 002°30'612.5
2017-Jun-17 17:31N 50°04' W 002°20'612.1
2017-Jun-17 17:00N 50°05' W 002°11'611.5
2017-Jun-17 16:30N 50°07' W 002°03'510.9
2017-Jun-17 16:00N 50°08' W 001°54'510.3
2017-Jun-17 15:31N 50°10' W 001°47'5 9.7
2017-Jun-17 15:00N 50°11' W 001°39'9 9.2
2017-Jun-17 14:00N 50°13' W 001°26'4 8.7
2017-Jun-17 13:30N 50°15' W 001°19'4 8.6
2017-Jun-17 13:00N 50°16' W 001°13'4 8.7
2017-Jun-17 12:30N 50°17' W 001°06'5 9.3
2017-Jun-17 12:00N 50°18' W 000°59'5 9.9
2017-Jun-17 11:30N 50°20' W 000°52'510.4
2017-Jun-17 11:00N 50°21' W 000°44'510.8
2017-Jun-17 10:30N 50°23' W 000°36'611.4
2017-Jun-17 10:00N 50°24' W 000°27'611.9
2017-Jun-17 09:30N 50°25' W 000°18'612.3
2017-Jun-17 09:00N 50°27' W 000°09'612.3
2017-Jun-17 08:30N 50°29' E 000°01'612.4
2017-Jun-17 08:00N 50°31' E 000°10'612.2
2017-Jun-17 07:29N 50°32' E 000°20'3710.7
2017-Jun-17 04:03N 50°50' E 001°10'1 9.5
2017-Jun-17 03:57N 50°51' E 001°11'5 9.5
2017-Jun-17 03:26N 50°54' E 001°17'4 9.5
2017-Jun-17 03:00N 50°57' E 001°21'510.2
2017-Jun-17 02:30N 51°01' E 001°27'611.3
2017-Jun-17 02:00N 51°05' E 001°33'611.9
2017-Jun-17 01:30N 51°09' E 001°39'612.3
2017-Jun-17 01:00N 51°14' E 001°45'713.0
2017-Jun-17 00:30N 51°20' E 001°51'612.7
2017-Jun-17 00:00N 51°25' E 001°57'510.5
2017-Jun-16 23:30N 51°24' E 002°06'611.4
2017-Jun-16 23:00N 51°21' E 002°14'611.2
2017-Jun-16 22:30N 51°22' E 002°23'611.6
2017-Jun-16 22:00N 51°23' E 002°32'611.4
2017-Jun-16 21:30N 51°22' E 002°41'5 9.3
2017-Jun-16 21:00N 51°22' E 002°48'611.1
2017-Jun-16 20:30N 51°23' E 002°57'510.4
2017-Jun-16 20:00N 51°24' E 003°05'510.9
2017-Jun-16 19:30N 51°25' E 003°14'611.0
2017-Jun-16 19:00N 51°25' E 003°23'511.1
2017-Jun-16 18:30N 51°25' E 003°32'4 7.5
2017-Jun-16 18:00N 51°25' E 003°38'510.0
2017-Jun-16 17:30N 51°22' E 003°44'4 8.1
2017-Jun-16 17:00N 51°20' E 003°49'0 0.5
2017-Jun-16 16:30N 51°19' E 003°49'2 3.7
2017-Jun-16 16:00N 51°18' E 003°50'3 6.4
2017-Jun-16 15:30N 51°15' E 003°49'3 6.9
2017-Jun-16 15:01N 51°11' E 003°48'5 5.3
2017-Jun-16 14:00N 51°06' E 003°45'0 0.0
2017-Jun-16 13:30N 51°06' E 003°45'0 0.0
2017-Jun-16 12:57N 51°06' E 003°45'0 0.0
2017-Jun-16 12:30N 51°06' E 003°45'0 0.0
2017-Jun-16 11:53N 51°06' E 003°45'0 0.0
2017-Jun-16 11:29N 51°06' E 003°45'0 0.0
2017-Jun-16 10:53N 51°06' E 003°45'0 0.0
2017-Jun-16 10:26N 51°06' E 003°45'0 0.0
2017-Jun-16 09:53N 51°06' E 003°45'0 0.0
2017-Jun-16 09:28N 51°06' E 003°45'0 0.0
2017-Jun-16 08:55N 51°06' E 003°45'0 0.0
2017-Jun-16 08:28N 51°06' E 003°45'0 0.0
2017-Jun-16 07:55N 51°06' E 003°45'0 0.0
2017-Jun-16 07:31N 51°06' E 003°45'0 0.0
2017-Jun-16 07:00N 51°06' E 003°45'0 0.0
2017-Jun-16 06:30N 51°06' E 003°45'0 0.0
2017-Jun-16 06:00N 51°06' E 003°45'0 0.0
2017-Jun-16 05:27N 51°06' E 003°45'0 0.0
2017-Jun-16 04:59N 51°06' E 003°45'0 0.0
2017-Jun-16 04:29N 51°06' E 003°45'0 0.0
2017-Jun-16 03:56N 51°06' E 003°45'0 0.0
2017-Jun-16 03:29N 51°06' E 003°45'0 0.0
2017-Jun-16 02:56N 51°06' E 003°45'0 0.0
2017-Jun-16 02:28N 51°06' E 003°45'0 0.0
2017-Jun-16 01:55N 51°06' E 003°45'0 0.0
2017-Jun-16 01:28N 51°06' E 003°45'0 0.0
2017-Jun-16 00:55N 51°06' E 003°45'0 0.0
2017-Jun-16 00:30N 51°06' E 003°45'0 0.0
2017-Jun-15 23:54N 51°06' E 003°45'0 0.0
2017-Jun-15 23:30N 51°06' E 003°45'0 0.0
2017-Jun-15 22:57N 51°06' E 003°45'0 0.0
2017-Jun-15 22:30N 51°06' E 003°45'0 0.0
2017-Jun-15 21:56N 51°06' E 003°45'0 0.0
2017-Jun-15 21:29N 51°06' E 003°45'0 0.0
2017-Jun-15 20:56N 51°06' E 003°45'0 0.0
2017-Jun-15 20:29N 51°06' E 003°45'0 0.0
2017-Jun-15 19:56N 51°06' E 003°45'0 0.0
2017-Jun-15 19:28N 51°06' E 003°45'0 0.0
2017-Jun-15 18:55N 51°06' E 003°45'0 0.0
2017-Jun-15 18:28N 51°06' E 003°45'0 0.0
2017-Jun-15 17:52N 51°06' E 003°45'0 0.0
2017-Jun-15 17:31N 51°06' E 003°45'0 0.0
2017-Jun-15 16:54N 51°06' E 003°45'0 0.0
2017-Jun-15 16:30N 51°06' E 003°45'0 0.0
2017-Jun-15 15:51N 51°06' E 003°45'0 0.0
2017-Jun-15 15:30N 51°06' E 003°45'0 0.0
2017-Jun-15 14:59N 51°06' E 003°45'0 0.0
2017-Jun-15 13:53N 51°06' E 003°45'0 0.0
2017-Jun-15 13:29N 51°06' E 003°45'0 0.6
2017-Jun-15 13:00N 51°07' E 003°45'4 7.4
2017-Jun-15 12:30N 51°10' E 003°47'1 1.4
2017-Jun-15 11:55N 51°11' E 003°48'0 0.0
2017-Jun-15 11:28N 51°11' E 003°48'0 0.0
2017-Jun-15 10:57N 51°11' E 003°48'0 0.0
2017-Jun-15 10:30N 51°11' E 003°48'0 0.0
2017-Jun-15 09:54N 51°11' E 003°48'0 0.0
2017-Jun-15 09:30N 51°11' E 003°48'0 0.0
2017-Jun-15 08:57N 51°11' E 003°48'0 0.0
2017-Jun-15 08:26N 51°11' E 003°48'0 0.0
2017-Jun-15 07:56N 51°11' E 003°48'0 0.0
2017-Jun-15 07:29N 51°11' E 003°48'0 0.0
2017-Jun-15 06:50N 51°11' E 003°48'0 0.0
2017-Jun-15 06:29N 51°11' E 003°48'0 0.0
2017-Jun-15 05:52N 51°11' E 003°48'0 0.0
2017-Jun-15 05:28N 51°11' E 003°48'0 0.0
2017-Jun-15 04:49N 51°11' E 003°48'0 0.0
2017-Jun-15 04:28N 51°11' E 003°48'0 0.0
2017-Jun-15 04:00N 51°11' E 003°48'0 0.0
2017-Jun-15 03:30N 51°11' E 003°48'0 0.0
2017-Jun-15 03:00N 51°11' E 003°48'0 0.0
2017-Jun-15 02:27N 51°11' E 003°48'0 0.0
2017-Jun-15 02:00N 51°11' E 003°48'0 0.0
2017-Jun-15 01:29N 51°11' E 003°48'0 0.0
2017-Jun-15 00:56N 51°11' E 003°48'0 0.0
2017-Jun-15 00:29N 51°11' E 003°48'0 0.0
2017-Jun-14 23:59N 51°11' E 003°48'0 0.0
2017-Jun-14 23:29N 51°11' E 003°48'0 0.0
2017-Jun-14 22:52N 51°11' E 003°48'0 0.0
2017-Jun-14 22:28N 51°11' E 003°48'0 0.0
2017-Jun-14 21:52N 51°11' E 003°48'0 0.0
2017-Jun-14 21:28N 51°11' E 003°48'0 0.0
2017-Jun-14 21:00N 51°11' E 003°48'0 0.0
2017-Jun-14 20:27N 51°11' E 003°48'0 0.0
2017-Jun-14 20:00N 51°11' E 003°48'0 0.5
2017-Jun-14 19:30N 51°11' E 003°48'4 8.2
2017-Jun-14 19:00N 51°15' E 003°49'4 7.8
2017-Jun-14 18:30N 51°19' E 003°50'1 2.1
2017-Jun-14 18:00N 51°20' E 003°49'0 0.9
2017-Jun-14 17:30N 51°20' E 003°49'0 0.8
2017-Jun-14 17:00N 51°21' E 003°49'3 6.5
2017-Jun-14 16:30N 51°22' E 003°44'4 8.6
2017-Jun-14 16:00N 51°25' E 003°39'5 9.3
2017-Jun-14 15:31N 51°25' E 003°32'4 8.7
2017-Jun-14 15:00N 51°24' E 003°25'1010.4
2017-Jun-14 14:00N 51°22' E 003°08'612.5
2017-Jun-14 13:30N 51°21' E 002°58'611.8
2017-Jun-14 13:00N 51°22' E 002°49'611.4
2017-Jun-14 12:30N 51°21' E 002°40'1 2.6
2017-Jun-14 12:01N 51°21' E 002°38'1 1.5
2017-Jun-14 11:30N 51°21' E 002°37'2 4.5
2017-Jun-14 11:01N 51°22' E 002°33'2 4.4
2017-Jun-14 10:30N 51°22' E 002°30'2 4.3
2017-Jun-14 10:00N 51°21' E 002°27'  
Track history (hours):
 
Tides and Currents Weather Stations Pressure Air Temp Water Temp Dewpoint Dewpoint Depression Visibility Wind Speed Wind Dir Waves Ship Positions

Citadel

Last reported at 2017-Jun-24 09:35 UTC. Time now 2017-Jun-24 10:21 UTC.
Position N 40°16' E 005°58'.

Length 111 m; draft 6.4 m.

Type: Cargo ship. MMSI: 245977000.

Date/timePositionNaut miles runAvg speedWind from/ knotsBaromVisibWave heightAir tempDewpointWater temp
2017-Jun-24 09:35N 40°16' E 005°58'110.5
2017-Jun-24 09:30N 40°15' E 005°57'510.5
2017-Jun-24 09:00N 40°13' E 005°51'1110.7
2017-Jun-24 07:58N 40°08' E 005°38'2010.6
2017-Jun-24 06:02N 39°58' E 005°15'110.9
2017-Jun-24 05:58N 39°58' E 005°14'510.9
2017-Jun-24 05:29N 39°56' E 005°08'510.8
2017-Jun-24 05:00N 39°53' E 005°02'711.0
2017-Jun-24 04:21N 39°50' E 004°53'411.1
2017-Jun-24 04:00N 39°48' E 004°49'611.2
2017-Jun-24 03:30N 39°45' E 004°43'611.2
2017-Jun-24 03:00N 39°43' E 004°36'511.1
2017-Jun-24 02:30N 39°40' E 004°30'611.1
2017-Jun-24 01:58N 39°38' E 004°23'510.9
2017-Jun-24 01:30N 39°35' E 004°17'510.9
2017-Jun-24 01:00N 39°33' E 004°10'811.0
2017-Jun-24 00:16N 39°29' E 004°01'311.1
2017-Jun-23 23:59N 39°27' E 003°58'511.2
2017-Jun-23 23:30N 39°25' E 003°52'611.2
2017-Jun-23 22:59N 39°22' E 003°45'511.2
2017-Jun-23 22:30N 39°20' E 003°39'611.2
2017-Jun-23 22:00N 39°17' E 003°32'611.3
2017-Jun-23 21:30N 39°15' E 003°26'611.6
2017-Jun-23 21:00N 39°12' E 003°19'611.5
2017-Jun-23 20:30N 39°09' E 003°12'611.4
2017-Jun-23 20:00N 39°07' E 003°06'611.3
2017-Jun-23 19:30N 39°04' E 002°59'611.2
2017-Jun-23 19:00N 39°02' E 002°53'611.2
2017-Jun-23 18:30N 38°59' E 002°47'611.1
2017-Jun-23 18:00N 38°57' E 002°40'611.2
2017-Jun-23 17:30N 38°54' E 002°34'611.0
2017-Jun-23 17:00N 38°51' E 002°28'611.2
2017-Jun-23 16:30N 38°49' E 002°21'611.2
2017-Jun-23 16:00N 38°46' E 002°15'611.5
2017-Jun-23 15:30N 38°44' E 002°09'611.7
2017-Jun-23 15:00N 38°41' E 002°02'1211.8
2017-Jun-23 14:00N 38°36' E 001°48'611.5
2017-Jun-23 13:30N 38°33' E 001°42'611.4
2017-Jun-23 13:00N 38°30' E 001°35'611.2
2017-Jun-23 12:30N 38°27' E 001°29'611.3
2017-Jun-23 11:58N 38°24' E 001°23'611.3
2017-Jun-23 11:25N 38°21' E 001°16'511.3
2017-Jun-23 10:59N 38°18' E 001°11'611.4
2017-Jun-23 10:30N 38°15' E 001°05'1311.3
2017-Jun-23 09:20N 38°07' E 000°51'411.3
2017-Jun-23 09:00N 38°05' E 000°48'611.2
2017-Jun-23 08:29N 38°02' E 000°42'511.1
2017-Jun-23 08:00N 37°59' E 000°36'611.0
2017-Jun-23 07:28N 37°55' E 000°30'511.1
2017-Jun-23 07:00N 37°52' E 000°24'611.1
2017-Jun-23 06:30N 37°49' E 000°19'511.3
2017-Jun-23 06:00N 37°46' E 000°13'611.3
2017-Jun-23 05:30N 37°43' E 000°07'511.0
2017-Jun-23 05:00N 37°39' E 000°01'610.9
2017-Jun-23 04:30N 37°36' W 000°04'511.0
2017-Jun-23 04:00N 37°33' W 000°10'511.1
2017-Jun-23 03:30N 37°30' W 000°15'611.1
2017-Jun-23 03:00N 37°27' W 000°21'611.1
2017-Jun-23 02:30N 37°23' W 000°27'611.1
2017-Jun-23 02:00N 37°20' W 000°33'611.0
2017-Jun-23 01:30N 37°17' W 000°39'510.8
2017-Jun-23 01:00N 37°14' W 000°44'510.8
2017-Jun-23 00:30N 37°11' W 000°50'611.0
2017-Jun-23 00:00N 37°07' W 000°55'611.1
2017-Jun-22 23:27N 37°04' W 001°01'510.5
2017-Jun-22 23:00N 37°01' W 001°06'5510.5
2017-Jun-22 17:45N 36°28' W 002°01'310.7
2017-Jun-22 17:28N 36°26' W 002°04'14511.3
2017-Jun-22 04:38N 35°57' W 004°60'111.7
2017-Jun-22 04:30N 35°57' W 005°02'611.8
2017-Jun-22 04:00N 35°56' W 005°09'611.7
2017-Jun-22 03:30N 35°55' W 005°16'3 5.6
2017-Jun-22 03:00N 35°54' W 005°19'0 0.0
2017-Jun-22 02:30N 35°54' W 005°19'0 0.0
2017-Jun-22 01:59N 35°54' W 005°19'0 0.0
2017-Jun-22 01:29N 35°54' W 005°19'0 0.0
2017-Jun-22 00:59N 35°54' W 005°19'0 0.0
2017-Jun-22 00:29N 35°54' W 005°19'0 0.1
2017-Jun-22 00:00N 35°54' W 005°19'1 2.6
2017-Jun-21 23:31N 35°55' W 005°19'4 8.0
2017-Jun-21 23:01N 35°56' W 005°23'811.8
2017-Jun-21 22:22N 35°56' W 005°33'410.9
2017-Jun-21 22:01N 35°55' W 005°37'10 9.4
2017-Jun-21 20:56N 35°55' W 005°50'410.1
2017-Jun-21 20:31N 35°55' W 005°55'8711.5
2017-Jun-21 12:57N 36°14' W 007°40'811.6
2017-Jun-21 12:18N 36°16' W 007°49'2111.6
2017-Jun-21 10:28N 36°21' W 008°14'1511.7
2017-Jun-21 09:09N 36°26' W 008°33'211.7
2017-Jun-21 08:57N 36°26' W 008°36'10910.2
2017-Jun-20 22:13N 37°57' W 009°52'211.8
2017-Jun-20 22:01N 37°59' W 009°52'611.9
2017-Jun-20 21:30N 38°05' W 009°54'611.7
2017-Jun-20 21:00N 38°11' W 009°56'611.6
2017-Jun-20 20:31N 38°16' W 009°57'611.5
2017-Jun-20 20:00N 38°22' W 009°59'611.7
2017-Jun-20 19:31N 38°27' W 010°01'611.6
2017-Jun-20 19:01N 38°33' W 010°02'611.5
2017-Jun-20 18:31N 38°39' W 010°04'611.5
2017-Jun-20 18:00N 38°44' W 010°05'611.2
2017-Jun-20 17:30N 38°50' W 010°05'611.6
2017-Jun-20 17:01N 38°56' W 010°05'611.4
2017-Jun-20 16:30N 39°02' W 010°05'611.7
2017-Jun-20 16:00N 39°07' W 010°05'611.4
2017-Jun-20 15:30N 39°13' W 010°05'611.6
2017-Jun-20 15:00N 39°19' W 010°05'611.3
2017-Jun-20 14:30N 39°25' W 010°05'3411.3
2017-Jun-20 11:30N 39°58' W 010°05'611.3
2017-Jun-20 11:00N 40°04' W 010°05'511.1
2017-Jun-20 10:30N 40°09' W 010°05'510.8
2017-Jun-20 10:00N 40°15' W 010°05'4211.1
2017-Jun-20 06:14N 40°57' W 010°05'50610.8
2017-Jun-18 07:21N 48°49' W 005°49'410.5
2017-Jun-18 07:00N 48°52' W 005°47'510.7
2017-Jun-18 06:30N 48°55' W 005°40'510.9
2017-Jun-18 06:00N 48°57' W 005°32'611.2
2017-Jun-18 05:28N 49°00' W 005°24'511.3
2017-Jun-18 05:00N 49°03' W 005°18'611.7
2017-Jun-18 04:30N 49°06' W 005°10'611.6
2017-Jun-18 04:00N 49°09' W 005°02'611.6
2017-Jun-18 03:30N 49°12' W 004°55'611.6
2017-Jun-18 03:00N 49°15' W 004°47'611.4
2017-Jun-18 02:30N 49°18' W 004°39'611.2
2017-Jun-18 02:00N 49°20' W 004°32'511.0
2017-Jun-18 01:30N 49°23' W 004°25'510.7
2017-Jun-18 01:00N 49°26' W 004°17'1410.4
2017-Jun-17 23:40N 49°33' W 003°59'210.3
2017-Jun-17 23:30N 49°34' W 003°57'1210.2
2017-Jun-17 22:20N 49°40' W 003°41'1210.7
2017-Jun-17 21:13N 49°46' W 003°25'911.5
2017-Jun-17 20:28N 49°50' W 003°13'812.0
2017-Jun-17 19:48N 49°54' W 003°02'412.4
2017-Jun-17 19:30N 49°56' W 002°58'612.5
2017-Jun-17 19:00N 49°58' W 002°49'612.7
2017-Jun-17 18:30N 50°00' W 002°39'612.7
2017-Jun-17 18:01N 50°02' W 002°30'612.5
2017-Jun-17 17:31N 50°04' W 002°20'612.1
2017-Jun-17 17:00N 50°05' W 002°11'611.5
2017-Jun-17 16:30N 50°07' W 002°03'510.9
2017-Jun-17 16:00N 50°08' W 001°54'510.3
2017-Jun-17 15:31N 50°10' W 001°47'5 9.7
2017-Jun-17 15:00N 50°11' W 001°39'9 9.2
2017-Jun-17 14:00N 50°13' W 001°26'4 8.7
2017-Jun-17 13:30N 50°15' W 001°19'4 8.6
2017-Jun-17 13:00N 50°16' W 001°13'4 8.7
2017-Jun-17 12:30N 50°17' W 001°06'5 9.3
2017-Jun-17 12:00N 50°18' W 000°59'5 9.9
2017-Jun-17 11:30N 50°20' W 000°52'510.4
2017-Jun-17 11:00N 50°21' W 000°44'510.8
2017-Jun-17 10:30N 50°23' W 000°36'611.4
2017-Jun-17 10:00N 50°24' W 000°27'611.9
2017-Jun-17 09:30N 50°25' W 000°18'612.3
2017-Jun-17 09:00N 50°27' W 000°09'612.3
2017-Jun-17 08:30N 50°29' E 000°01'612.4
2017-Jun-17 08:00N 50°31' E 000°10'612.2
2017-Jun-17 07:29N 50°32' E 000°20'3710.7
2017-Jun-17 04:03N 50°50' E 001°10'1 9.5
2017-Jun-17 03:57N 50°51' E 001°11'5 9.5
2017-Jun-17 03:26N 50°54' E 001°17'4 9.5
2017-Jun-17 03:00N 50°57' E 001°21'510.2
2017-Jun-17 02:30N 51°01' E 001°27'611.3
2017-Jun-17 02:00N 51°05' E 001°33'611.9
2017-Jun-17 01:30N 51°09' E 001°39'612.3
2017-Jun-17 01:00N 51°14' E 001°45'713.0
2017-Jun-17 00:30N 51°20' E 001°51'612.7
2017-Jun-17 00:00N 51°25' E 001°57'510.5
2017-Jun-16 23:30N 51°24' E 002°06'611.4
2017-Jun-16 23:00N 51°21' E 002°14'611.2
2017-Jun-16 22:30N 51°22' E 002°23'611.6
2017-Jun-16 22:00N 51°23' E 002°32'611.4
2017-Jun-16 21:30N 51°22' E 002°41'5 9.3
2017-Jun-16 21:00N 51°22' E 002°48'611.1
2017-Jun-16 20:30N 51°23' E 002°57'510.4
2017-Jun-16 20:00N 51°24' E 003°05'510.9
2017-Jun-16 19:30N 51°25' E 003°14'611.0
2017-Jun-16 19:00N 51°25' E 003°23'511.1
2017-Jun-16 18:30N 51°25' E 003°32'4 7.5
2017-Jun-16 18:00N 51°25' E 003°38'510.0
2017-Jun-16 17:30N 51°22' E 003°44'4 8.1
2017-Jun-16 17:00N 51°20' E 003°49'0 0.5
2017-Jun-16 16:30N 51°19' E 003°49'2 3.7
2017-Jun-16 16:00N 51°18' E 003°50'3 6.4
2017-Jun-16 15:30N 51°15' E 003°49'3 6.9
2017-Jun-16 15:01N 51°11' E 003°48'5 5.3
2017-Jun-16 14:00N 51°06' E 003°45'0 0.0
2017-Jun-16 13:30N 51°06' E 003°45'0 0.0
2017-Jun-16 12:57N 51°06' E 003°45'0 0.0
2017-Jun-16 12:30N 51°06' E 003°45'0 0.0
2017-Jun-16 11:53N 51°06' E 003°45'0 0.0
2017-Jun-16 11:29N 51°06' E 003°45'0 0.0
2017-Jun-16 10:53N 51°06' E 003°45'0 0.0
2017-Jun-16 10:26N 51°06' E 003°45'0 0.0
2017-Jun-16 09:53N 51°06' E 003°45'0 0.0
2017-Jun-16 09:28N 51°06' E 003°45'0 0.0
2017-Jun-16 08:55N 51°06' E 003°45'0 0.0
2017-Jun-16 08:28N 51°06' E 003°45'0 0.0
2017-Jun-16 07:55N 51°06' E 003°45'0 0.0
2017-Jun-16 07:31N 51°06' E 003°45'0 0.0
2017-Jun-16 07:00N 51°06' E 003°45'0 0.0
2017-Jun-16 06:30N 51°06' E 003°45'0 0.0
2017-Jun-16 06:00N 51°06' E 003°45'0 0.0
2017-Jun-16 05:27N 51°06' E 003°45'0 0.0
2017-Jun-16 04:59N 51°06' E 003°45'0 0.0
2017-Jun-16 04:29N 51°06' E 003°45'0 0.0
2017-Jun-16 03:56N 51°06' E 003°45'0 0.0
2017-Jun-16 03:29N 51°06' E 003°45'0 0.0
2017-Jun-16 02:56N 51°06' E 003°45'0 0.0
2017-Jun-16 02:28N 51°06' E 003°45'0 0.0
2017-Jun-16 01:55N 51°06' E 003°45'0 0.0
2017-Jun-16 01:28N 51°06' E 003°45'0 0.0
2017-Jun-16 00:55N 51°06' E 003°45'0 0.0
2017-Jun-16 00:30N 51°06' E 003°45'0 0.0
2017-Jun-15 23:54N 51°06' E 003°45'0 0.0
2017-Jun-15 23:30N 51°06' E 003°45'0 0.0
2017-Jun-15 22:57N 51°06' E 003°45'0 0.0
2017-Jun-15 22:30N 51°06' E 003°45'0 0.0
2017-Jun-15 21:56N 51°06' E 003°45'0 0.0
2017-Jun-15 21:29N 51°06' E 003°45'0 0.0
2017-Jun-15 20:56N 51°06' E 003°45'0 0.0
2017-Jun-15 20:29N 51°06' E 003°45'0 0.0
2017-Jun-15 19:56N 51°06' E 003°45'0 0.0
2017-Jun-15 19:28N 51°06' E 003°45'0 0.0
2017-Jun-15 18:55N 51°06' E 003°45'0 0.0
2017-Jun-15 18:28N 51°06' E 003°45'0 0.0
2017-Jun-15 17:52N 51°06' E 003°45'0 0.0
2017-Jun-15 17:31N 51°06' E 003°45'0 0.0
2017-Jun-15 16:54N 51°06' E 003°45'0 0.0
2017-Jun-15 16:30N 51°06' E 003°45'0 0.0
2017-Jun-15 15:51N 51°06' E 003°45'0 0.0
2017-Jun-15 15:30N 51°06' E 003°45'0 0.0
2017-Jun-15 14:59N 51°06' E 003°45'0 0.0
2017-Jun-15 13:53N 51°06' E 003°45'0 0.0
2017-Jun-15 13:29N 51°06' E 003°45'0 0.6
2017-Jun-15 13:00N 51°07' E 003°45'4 7.4
2017-Jun-15 12:30N 51°10' E 003°47'1 1.4
2017-Jun-15 11:55N 51°11' E 003°48'0 0.0
2017-Jun-15 11:28N 51°11' E 003°48'0 0.0
2017-Jun-15 10:57N 51°11' E 003°48'0 0.0
2017-Jun-15 10:30N 51°11' E 003°48'0 0.0
2017-Jun-15 09:54N 51°11' E 003°48'0 0.0
2017-Jun-15 09:30N 51°11' E 003°48'0 0.0
2017-Jun-15 08:57N 51°11' E 003°48'0 0.0
2017-Jun-15 08:26N 51°11' E 003°48'0 0.0
2017-Jun-15 07:56N 51°11' E 003°48'0 0.0
2017-Jun-15 07:29N 51°11' E 003°48'0 0.0
2017-Jun-15 06:50N 51°11' E 003°48'0 0.0
2017-Jun-15 06:29N 51°11' E 003°48'0 0.0
2017-Jun-15 05:52N 51°11' E 003°48'0 0.0
2017-Jun-15 05:28N 51°11' E 003°48'0 0.0
2017-Jun-15 04:49N 51°11' E 003°48'0 0.0
2017-Jun-15 04:28N 51°11' E 003°48'0 0.0
2017-Jun-15 04:00N 51°11' E 003°48'0 0.0
2017-Jun-15 03:30N 51°11' E 003°48'0 0.0
2017-Jun-15 03:00N 51°11' E 003°48'0 0.0
2017-Jun-15 02:27N 51°11' E 003°48'0 0.0
2017-Jun-15 02:00N 51°11' E 003°48'0 0.0
2017-Jun-15 01:29N 51°11' E 003°48'0 0.0
2017-Jun-15 00:56N 51°11' E 003°48'0 0.0
2017-Jun-15 00:29N 51°11' E 003°48'0 0.0
2017-Jun-14 23:59N 51°11' E 003°48'0 0.0
2017-Jun-14 23:29N 51°11' E 003°48'0 0.0
2017-Jun-14 22:52N 51°11' E 003°48'0 0.0
2017-Jun-14 22:28N 51°11' E 003°48'0 0.0
2017-Jun-14 21:52N 51°11' E 003°48'0 0.0
2017-Jun-14 21:28N 51°11' E 003°48'0 0.0
2017-Jun-14 21:00N 51°11' E 003°48'0 0.0
2017-Jun-14 20:27N 51°11' E 003°48'0 0.0
2017-Jun-14 20:00N 51°11' E 003°48'0 0.5
2017-Jun-14 19:30N 51°11' E 003°48'4 8.2
2017-Jun-14 19:00N 51°15' E 003°49'4 7.8
2017-Jun-14 18:30N 51°19' E 003°50'1 2.1
2017-Jun-14 18:00N 51°20' E 003°49'0 0.9
2017-Jun-14 17:30N 51°20' E 003°49'0 0.8
2017-Jun-14 17:00N 51°21' E 003°49'3 6.5
2017-Jun-14 16:30N 51°22' E 003°44'4 8.6
2017-Jun-14 16:00N 51°25' E 003°39'5 9.3
2017-Jun-14 15:31N 51°25' E 003°32'4 8.7
2017-Jun-14 15:00N 51°24' E 003°25'1010.4
2017-Jun-14 14:00N 51°22' E 003°08'612.5
2017-Jun-14 13:30N 51°21' E 002°58'611.8
2017-Jun-14 13:00N 51°22' E 002°49'611.4
2017-Jun-14 12:30N 51°21' E 002°40'1 2.6
2017-Jun-14 12:01N 51°21' E 002°38'1 1.5
2017-Jun-14 11:30N 51°21' E 002°37'2 4.5
2017-Jun-14 11:01N 51°22' E 002°33'2 4.4
2017-Jun-14 10:30N 51°22' E 002°30'2 4.3
2017-Jun-14 10:00N 51°21' E 002°27'  

Dump ship's entire track history